sensor_id;sensor_type;location;lat;lon;timestamp;P1;durP1;ratioP1;P2;durP2;ratioP2
34711;SDS011;20941;42.408;25.634;2022-08-21T00:01:06;8.80;;;5.13;;
34711;SDS011;20941;42.408;25.634;2022-08-21T00:03:36;9.45;;;4.80;;
34711;SDS011;20941;42.408;25.634;2022-08-21T00:06:02;8.38;;;4.65;;
34711;SDS011;20941;42.408;25.634;2022-08-21T00:08:27;8.52;;;5.07;;
34711;SDS011;20941;42.408;25.634;2022-08-21T00:10:53;5.35;;;4.47;;
34711;SDS011;20941;42.408;25.634;2022-08-21T00:13:19;7.30;;;4.97;;
34711;SDS011;20941;42.408;25.634;2022-08-21T00:15:45;7.22;;;5.90;;
34711;SDS011;20941;42.408;25.634;2022-08-21T00:18:11;12.40;;;6.03;;
34711;SDS011;20941;42.408;25.634;2022-08-21T00:20:38;9.88;;;5.60;;
34711;SDS011;20941;42.408;25.634;2022-08-21T00:23:04;10.82;;;6.10;;
34711;SDS011;20941;42.408;25.634;2022-08-21T00:25:29;8.25;;;5.93;;
34711;SDS011;20941;42.408;25.634;2022-08-21T00:27:56;10.07;;;5.50;;
34711;SDS011;20941;42.408;25.634;2022-08-21T00:30:22;9.52;;;5.70;;
34711;SDS011;20941;42.408;25.634;2022-08-21T00:32:50;8.30;;;5.63;;
34711;SDS011;20941;42.408;25.634;2022-08-21T00:35:17;8.00;;;5.20;;
34711;SDS011;20941;42.408;25.634;2022-08-21T00:37:44;7.93;;;5.95;;
34711;SDS011;20941;42.408;25.634;2022-08-21T00:40:11;8.65;;;6.13;;
34711;SDS011;20941;42.408;25.634;2022-08-21T00:42:40;10.57;;;5.75;;
34711;SDS011;20941;42.408;25.634;2022-08-21T00:45:07;10.00;;;5.95;;
34711;SDS011;20941;42.408;25.634;2022-08-21T00:47:33;8.02;;;5.70;;
34711;SDS011;20941;42.408;25.634;2022-08-21T00:49:59;10.10;;;5.82;;
34711;SDS011;20941;42.408;25.634;2022-08-21T00:52:25;9.63;;;5.95;;
34711;SDS011;20941;42.408;25.634;2022-08-21T00:54:57;10.20;;;5.78;;
34711;SDS011;20941;42.408;25.634;2022-08-21T00:57:26;10.55;;;5.80;;
34711;SDS011;20941;42.408;25.634;2022-08-21T00:59:56;8.32;;;5.82;;
34711;SDS011;20941;42.408;25.634;2022-08-21T01:02:25;11.50;;;5.82;;
34711;SDS011;20941;42.408;25.634;2022-08-21T01:04:51;9.30;;;5.80;;
34711;SDS011;20941;42.408;25.634;2022-08-21T01:07:17;7.47;;;5.63;;
34711;SDS011;20941;42.408;25.634;2022-08-21T01:09:43;8.50;;;6.03;;
34711;SDS011;20941;42.408;25.634;2022-08-21T01:12:10;8.73;;;6.00;;
34711;SDS011;20941;42.408;25.634;2022-08-21T01:14:36;8.35;;;6.10;;
34711;SDS011;20941;42.408;25.634;2022-08-21T01:17:03;10.93;;;6.40;;
34711;SDS011;20941;42.408;25.634;2022-08-21T01:19:29;10.05;;;6.15;;
34711;SDS011;20941;42.408;25.634;2022-08-21T01:21:55;8.70;;;5.90;;
34711;SDS011;20941;42.408;25.634;2022-08-21T01:24:21;7.55;;;6.00;;
34711;SDS011;20941;42.408;25.634;2022-08-21T01:26:47;7.45;;;5.78;;
34711;SDS011;20941;42.408;25.634;2022-08-21T01:29:29;7.75;;;5.75;;
34711;SDS011;20941;42.408;25.634;2022-08-21T01:31:59;7.70;;;5.72;;
34711;SDS011;20941;42.408;25.634;2022-08-21T01:34:30;5.75;;;5.15;;
34711;SDS011;20941;42.408;25.634;2022-08-21T01:36:57;8.43;;;5.45;;
34711;SDS011;20941;42.408;25.634;2022-08-21T01:39:23;6.70;;;5.45;;
34711;SDS011;20941;42.408;25.634;2022-08-21T01:41:49;9.10;;;5.35;;
34711;SDS011;20941;42.408;25.634;2022-08-21T01:47:16;8.27;;;6.35;;
34711;SDS011;20941;42.408;25.634;2022-08-21T01:53:57;10.82;;;6.78;;
34711;SDS011;20941;42.408;25.634;2022-08-21T01:56:58;9.52;;;7.53;;
34711;SDS011;20941;42.408;25.634;2022-08-21T02:12:42;7.85;;;7.05;;
34711;SDS011;20941;42.408;25.634;2022-08-21T02:15:54;12.50;;;7.70;;
34711;SDS011;20941;42.408;25.634;2022-08-21T02:18:31;11.63;;;8.85;;
34711;SDS011;20941;42.408;25.634;2022-08-21T02:21:14;11.75;;;9.38;;
34711;SDS011;20941;42.408;25.634;2022-08-21T02:23:44;13.02;;;8.52;;
34711;SDS011;20941;42.408;25.634;2022-08-21T02:26:15;13.82;;;7.38;;
34711;SDS011;20941;42.408;25.634;2022-08-21T02:31:13;13.73;;;8.10;;
34711;SDS011;20941;42.408;25.634;2022-08-21T02:33:48;14.65;;;8.68;;
34711;SDS011;20941;42.408;25.634;2022-08-21T02:36:26;14.93;;;8.57;;
34711;SDS011;20941;42.408;25.634;2022-08-21T02:38:54;13.13;;;8.10;;
34711;SDS011;20941;42.408;25.634;2022-08-21T02:41:20;12.52;;;8.05;;
34711;SDS011;20941;42.408;25.634;2022-08-21T02:43:49;15.00;;;9.10;;
34711;SDS011;20941;42.408;25.634;2022-08-21T02:46:16;13.95;;;8.60;;
34711;SDS011;20941;42.408;25.634;2022-08-21T02:48:48;18.65;;;9.35;;
34711;SDS011;20941;42.408;25.634;2022-08-21T02:51:20;14.07;;;9.20;;
34711;SDS011;20941;42.408;25.634;2022-08-21T03:14:28;15.87;;;8.67;;
34711;SDS011;20941;42.408;25.634;2022-08-21T03:16:53;15.00;;;8.57;;
34711;SDS011;20941;42.408;25.634;2022-08-21T03:19:19;12.40;;;7.70;;
34711;SDS011;20941;42.408;25.634;2022-08-21T03:21:45;12.07;;;7.55;;
34711;SDS011;20941;42.408;25.634;2022-08-21T03:24:11;11.38;;;7.85;;
34711;SDS011;20941;42.408;25.634;2022-08-21T03:26:37;14.00;;;7.03;;
34711;SDS011;20941;42.408;25.634;2022-08-21T03:29:02;8.82;;;5.80;;
34711;SDS011;20941;42.408;25.634;2022-08-21T03:31:28;12.02;;;7.45;;
34711;SDS011;20941;42.408;25.634;2022-08-21T03:33:56;14.35;;;6.95;;
34711;SDS011;20941;42.408;25.634;2022-08-21T03:36:22;10.48;;;6.50;;
34711;SDS011;20941;42.408;25.634;2022-08-21T03:38:48;15.40;;;7.18;;
34711;SDS011;20941;42.408;25.634;2022-08-21T03:41:13;14.50;;;7.00;;
34711;SDS011;20941;42.408;25.634;2022-08-21T03:43:39;10.45;;;6.85;;
34711;SDS011;20941;42.408;25.634;2022-08-21T03:46:08;12.18;;;7.15;;
34711;SDS011;20941;42.408;25.634;2022-08-21T03:48:39;15.15;;;7.18;;
34711;SDS011;20941;42.408;25.634;2022-08-21T03:51:10;14.40;;;7.40;;
34711;SDS011;20941;42.408;25.634;2022-08-21T03:53:57;14.05;;;6.75;;
34711;SDS011;20941;42.408;25.634;2022-08-21T03:56:24;8.40;;;6.20;;
34711;SDS011;20941;42.408;25.634;2022-08-21T03:58:50;14.07;;;5.90;;
34711;SDS011;20941;42.408;25.634;2022-08-21T04:01:15;12.88;;;6.10;;
34711;SDS011;20941;42.408;25.634;2022-08-21T04:03:41;13.82;;;6.45;;
34711;SDS011;20941;42.408;25.634;2022-08-21T04:06:07;13.60;;;5.97;;
34711;SDS011;20941;42.408;25.634;2022-08-21T04:08:32;12.55;;;6.35;;
34711;SDS011;20941;42.408;25.634;2022-08-21T04:10:59;10.05;;;5.80;;
34711;SDS011;20941;42.408;25.634;2022-08-21T04:13:25;10.10;;;5.47;;
34711;SDS011;20941;42.408;25.634;2022-08-21T04:15:53;9.15;;;5.68;;
34711;SDS011;20941;42.408;25.634;2022-08-21T04:18:19;9.68;;;5.97;;
34711;SDS011;20941;42.408;25.634;2022-08-21T04:20:45;12.52;;;5.60;;
34711;SDS011;20941;42.408;25.634;2022-08-21T04:23:13;7.68;;;4.80;;
34711;SDS011;20941;42.408;25.634;2022-08-21T04:25:39;9.32;;;5.35;;
34711;SDS011;20941;42.408;25.634;2022-08-21T04:28:09;11.35;;;5.50;;
34711;SDS011;20941;42.408;25.634;2022-08-21T04:30:35;9.27;;;4.85;;
34711;SDS011;20941;42.408;25.634;2022-08-21T04:33:01;7.30;;;4.53;;
34711;SDS011;20941;42.408;25.634;2022-08-21T04:35:28;9.05;;;5.18;;
34711;SDS011;20941;42.408;25.634;2022-08-21T04:37:56;12.60;;;5.22;;
34711;SDS011;20941;42.408;25.634;2022-08-21T04:40:39;9.27;;;4.80;;
34711;SDS011;20941;42.408;25.634;2022-08-21T04:43:09;13.05;;;4.47;;
34711;SDS011;20941;42.408;25.634;2022-08-21T04:45:37;7.05;;;4.43;;
34711;SDS011;20941;42.408;25.634;2022-08-21T04:48:05;12.85;;;5.13;;
34711;SDS011;20941;42.408;25.634;2022-08-21T04:50:43;7.20;;;4.70;;
34711;SDS011;20941;42.408;25.634;2022-08-21T04:53:49;9.98;;;4.35;;
34711;SDS011;20941;42.408;25.634;2022-08-21T04:56:27;8.32;;;4.85;;
34711;SDS011;20941;42.408;25.634;2022-08-21T04:58:57;12.18;;;5.10;;
34711;SDS011;20941;42.408;25.634;2022-08-21T05:01:25;11.50;;;5.00;;
34711;SDS011;20941;42.408;25.634;2022-08-21T05:03:54;10.88;;;5.03;;
34711;SDS011;20941;42.408;25.634;2022-08-21T05:06:22;11.88;;;4.60;;
34711;SDS011;20941;42.408;25.634;2022-08-21T05:08:48;6.35;;;5.15;;
34711;SDS011;20941;42.408;25.634;2022-08-21T05:11:18;12.05;;;5.70;;
34711;SDS011;20941;42.408;25.634;2022-08-21T05:13:44;12.75;;;6.07;;
34711;SDS011;20941;42.408;25.634;2022-08-21T05:16:11;15.55;;;6.38;;
34711;SDS011;20941;42.408;25.634;2022-08-21T05:18:37;10.57;;;5.80;;
34711;SDS011;20941;42.408;25.634;2022-08-21T05:21:13;14.02;;;6.30;;
34711;SDS011;20941;42.408;25.634;2022-08-21T05:23:41;12.77;;;5.68;;
34711;SDS011;20941;42.408;25.634;2022-08-21T05:26:08;11.23;;;5.03;;
34711;SDS011;20941;42.408;25.634;2022-08-21T05:28:33;13.45;;;5.80;;
34711;SDS011;20941;42.408;25.634;2022-08-21T05:30:59;11.77;;;4.82;;
34711;SDS011;20941;42.408;25.634;2022-08-21T05:33:25;9.73;;;5.60;;
34711;SDS011;20941;42.408;25.634;2022-08-21T05:35:51;9.70;;;5.10;;
34711;SDS011;20941;42.408;25.634;2022-08-21T05:38:20;12.38;;;5.80;;
34711;SDS011;20941;42.408;25.634;2022-08-21T05:40:46;7.93;;;5.35;;
34711;SDS011;20941;42.408;25.634;2022-08-21T05:43:13;7.45;;;5.13;;
34711;SDS011;20941;42.408;25.634;2022-08-21T05:45:39;13.77;;;5.47;;
34711;SDS011;20941;42.408;25.634;2022-08-21T05:48:08;14.50;;;6.05;;
34711;SDS011;20941;42.408;25.634;2022-08-21T05:50:35;11.13;;;6.60;;
34711;SDS011;20941;42.408;25.634;2022-08-21T05:53:02;11.73;;;6.20;;
34711;SDS011;20941;42.408;25.634;2022-08-21T05:55:28;11.32;;;6.00;;
34711;SDS011;20941;42.408;25.634;2022-08-21T05:57:53;11.02;;;5.97;;
34711;SDS011;20941;42.408;25.634;2022-08-21T06:00:19;12.80;;;6.95;;
34711;SDS011;20941;42.408;25.634;2022-08-21T06:02:45;13.02;;;6.53;;
34711;SDS011;20941;42.408;25.634;2022-08-21T06:05:10;12.93;;;6.20;;
34711;SDS011;20941;42.408;25.634;2022-08-21T06:07:35;9.13;;;6.35;;
34711;SDS011;20941;42.408;25.634;2022-08-21T06:10:02;10.73;;;6.93;;
34711;SDS011;20941;42.408;25.634;2022-08-21T06:12:29;13.80;;;7.18;;
34711;SDS011;20941;42.408;25.634;2022-08-21T06:15:20;13.43;;;6.43;;
34711;SDS011;20941;42.408;25.634;2022-08-21T06:17:45;11.43;;;6.90;;
34711;SDS011;20941;42.408;25.634;2022-08-21T06:20:10;13.88;;;6.72;;
34711;SDS011;20941;42.408;25.634;2022-08-21T06:22:36;8.77;;;6.68;;
34711;SDS011;20941;42.408;25.634;2022-08-21T06:25:01;9.10;;;6.57;;
34711;SDS011;20941;42.408;25.634;2022-08-21T06:27:27;11.40;;;6.65;;
34711;SDS011;20941;42.408;25.634;2022-08-21T06:29:53;12.52;;;7.03;;
34711;SDS011;20941;42.408;25.634;2022-08-21T06:32:22;12.00;;;6.57;;
34711;SDS011;20941;42.408;25.634;2022-08-21T06:34:48;12.43;;;7.07;;
34711;SDS011;20941;42.408;25.634;2022-08-21T06:37:13;8.70;;;5.97;;
34711;SDS011;20941;42.408;25.634;2022-08-21T06:39:39;10.43;;;5.35;;
34711;SDS011;20941;42.408;25.634;2022-08-21T06:42:05;7.75;;;5.40;;
34711;SDS011;20941;42.408;25.634;2022-08-21T06:44:30;14.30;;;6.43;;
34711;SDS011;20941;42.408;25.634;2022-08-21T06:46:57;10.00;;;6.22;;
34711;SDS011;20941;42.408;25.634;2022-08-21T06:49:22;9.15;;;5.32;;
34711;SDS011;20941;42.408;25.634;2022-08-21T06:51:48;8.65;;;6.15;;
34711;SDS011;20941;42.408;25.634;2022-08-21T06:54:13;10.82;;;5.72;;
34711;SDS011;20941;42.408;25.634;2022-08-21T06:56:38;9.73;;;5.60;;
34711;SDS011;20941;42.408;25.634;2022-08-21T06:59:04;9.45;;;6.22;;
34711;SDS011;20941;42.408;25.634;2022-08-21T07:01:30;8.20;;;6.25;;
34711;SDS011;20941;42.408;25.634;2022-08-21T07:03:56;7.55;;;5.93;;
34711;SDS011;20941;42.408;25.634;2022-08-21T07:06:22;9.85;;;6.00;;
34711;SDS011;20941;42.408;25.634;2022-08-21T07:08:47;7.43;;;5.63;;
34711;SDS011;20941;42.408;25.634;2022-08-21T07:11:23;12.15;;;6.05;;
34711;SDS011;20941;42.408;25.634;2022-08-21T07:13:49;10.43;;;6.47;;
34711;SDS011;20941;42.408;25.634;2022-08-21T07:16:17;10.13;;;5.93;;
34711;SDS011;20941;42.408;25.634;2022-08-21T07:18:43;9.60;;;5.45;;
34711;SDS011;20941;42.408;25.634;2022-08-21T07:21:09;11.95;;;5.60;;
34711;SDS011;20941;42.408;25.634;2022-08-21T07:23:39;10.18;;;5.70;;
34711;SDS011;20941;42.408;25.634;2022-08-21T07:26:10;7.35;;;5.25;;
34711;SDS011;20941;42.408;25.634;2022-08-21T07:28:38;8.43;;;5.35;;
34711;SDS011;20941;42.408;25.634;2022-08-21T07:31:06;10.68;;;6.32;;
34711;SDS011;20941;42.408;25.634;2022-08-21T07:33:35;10.15;;;6.00;;
34711;SDS011;20941;42.408;25.634;2022-08-21T07:36:02;11.15;;;6.32;;
34711;SDS011;20941;42.408;25.634;2022-08-21T07:38:28;10.15;;;5.93;;
34711;SDS011;20941;42.408;25.634;2022-08-21T07:40:54;8.45;;;5.70;;
34711;SDS011;20941;42.408;25.634;2022-08-21T07:43:22;7.75;;;5.90;;
34711;SDS011;20941;42.408;25.634;2022-08-21T07:45:48;10.13;;;5.70;;
34711;SDS011;20941;42.408;25.634;2022-08-21T07:48:18;10.05;;;6.55;;
34711;SDS011;20941;42.408;25.634;2022-08-21T07:50:44;7.50;;;5.28;;
34711;SDS011;20941;42.408;25.634;2022-08-21T07:53:10;9.10;;;6.10;;
34711;SDS011;20941;42.408;25.634;2022-08-21T07:55:35;8.50;;;5.13;;
34711;SDS011;20941;42.408;25.634;2022-08-21T07:58:01;16.13;;;6.53;;
34711;SDS011;20941;42.408;25.634;2022-08-21T08:00:27;9.60;;;5.40;;
34711;SDS011;20941;42.408;25.634;2022-08-21T08:02:53;7.75;;;5.20;;
34711;SDS011;20941;42.408;25.634;2022-08-21T08:05:20;8.93;;;5.07;;
34711;SDS011;20941;42.408;25.634;2022-08-21T08:07:48;8.48;;;5.30;;
34711;SDS011;20941;42.408;25.634;2022-08-21T08:10:14;7.00;;;5.07;;
34711;SDS011;20941;42.408;25.634;2022-08-21T08:12:41;9.55;;;5.38;;
34711;SDS011;20941;42.408;25.634;2022-08-21T08:15:09;8.55;;;5.30;;
34711;SDS011;20941;42.408;25.634;2022-08-21T08:17:39;7.30;;;5.13;;
34711;SDS011;20941;42.408;25.634;2022-08-21T08:20:05;8.00;;;5.07;;
34711;SDS011;20941;42.408;25.634;2022-08-21T08:22:33;6.40;;;4.80;;
34711;SDS011;20941;42.408;25.634;2022-08-21T08:24:59;9.82;;;5.28;;
34711;SDS011;20941;42.408;25.634;2022-08-21T08:27:25;7.78;;;5.50;;
34711;SDS011;20941;42.408;25.634;2022-08-21T08:29:51;5.47;;;4.70;;
34711;SDS011;20941;42.408;25.634;2022-08-21T08:32:16;7.50;;;4.95;;
34711;SDS011;20941;42.408;25.634;2022-08-21T08:34:41;8.65;;;5.03;;
34711;SDS011;20941;42.408;25.634;2022-08-21T08:37:08;8.40;;;5.00;;
34711;SDS011;20941;42.408;25.634;2022-08-21T08:39:35;6.70;;;4.90;;
34711;SDS011;20941;42.408;25.634;2022-08-21T08:42:34;7.05;;;5.13;;
34711;SDS011;20941;42.408;25.634;2022-08-21T08:45:05;10.13;;;6.13;;
34711;SDS011;20941;42.408;25.634;2022-08-21T08:47:35;8.80;;;6.40;;
34711;SDS011;20941;42.408;25.634;2022-08-21T08:50:07;9.50;;;6.22;;
34711;SDS011;20941;42.408;25.634;2022-08-21T08:52:41;11.25;;;6.63;;
34711;SDS011;20941;42.408;25.634;2022-08-21T08:55:14;9.73;;;6.55;;
34711;SDS011;20941;42.408;25.634;2022-08-21T08:57:46;7.60;;;5.85;;
34711;SDS011;20941;42.408;25.634;2022-08-21T09:00:14;9.50;;;6.82;;
34711;SDS011;20941;42.408;25.634;2022-08-21T09:02:42;11.07;;;7.63;;
34711;SDS011;20941;42.408;25.634;2022-08-21T09:05:12;11.82;;;7.55;;
34711;SDS011;20941;42.408;25.634;2022-08-21T09:16:24;8.75;;;7.32;;
34711;SDS011;20941;42.408;25.634;2022-08-21T09:19:11;9.25;;;6.80;;
34711;SDS011;20941;42.408;25.634;2022-08-21T09:21:49;7.47;;;6.68;;
34711;SDS011;20941;42.408;25.634;2022-08-21T09:24:42;7.90;;;6.93;;
34711;SDS011;20941;42.408;25.634;2022-08-21T09:27:22;11.35;;;7.30;;
34711;SDS011;20941;42.408;25.634;2022-08-21T09:29:48;9.32;;;6.85;;
34711;SDS011;20941;42.408;25.634;2022-08-21T09:32:19;9.55;;;7.15;;
34711;SDS011;20941;42.408;25.634;2022-08-21T09:40:41;10.05;;;8.30;;
34711;SDS011;20941;42.408;25.634;2022-08-21T09:45:37;9.65;;;7.45;;
34711;SDS011;20941;42.408;25.634;2022-08-21T09:48:15;12.68;;;7.93;;
34711;SDS011;20941;42.408;25.634;2022-08-21T09:50:45;8.85;;;6.80;;
34711;SDS011;20941;42.408;25.634;2022-08-21T09:53:22;9.77;;;7.18;;
34711;SDS011;20941;42.408;25.634;2022-08-21T09:55:55;10.35;;;6.60;;
34711;SDS011;20941;42.408;25.634;2022-08-21T09:58:42;10.52;;;6.68;;
34711;SDS011;20941;42.408;25.634;2022-08-21T10:01:16;8.45;;;6.32;;
34711;SDS011;20941;42.408;25.634;2022-08-21T10:03:44;9.60;;;7.15;;
34711;SDS011;20941;42.408;25.634;2022-08-21T10:06:21;11.55;;;7.20;;
34711;SDS011;20941;42.408;25.634;2022-08-21T10:08:49;9.70;;;7.50;;
34711;SDS011;20941;42.408;25.634;2022-08-21T10:11:15;10.38;;;7.88;;
34711;SDS011;20941;42.408;25.634;2022-08-21T10:19:03;11.48;;;8.60;;
34711;SDS011;20941;42.408;25.634;2022-08-21T10:27:38;11.07;;;8.60;;
34711;SDS011;20941;42.408;25.634;2022-08-21T10:35:26;14.38;;;8.75;;
34711;SDS011;20941;42.408;25.634;2022-08-21T10:40:58;11.05;;;7.47;;
34711;SDS011;20941;42.408;25.634;2022-08-21T10:51:51;11.70;;;8.57;;
34711;SDS011;20941;42.408;25.634;2022-08-21T10:54:38;15.50;;;9.07;;
34711;SDS011;20941;42.408;25.634;2022-08-21T10:57:18;12.13;;;9.13;;
34711;SDS011;20941;42.408;25.634;2022-08-21T10:59:55;10.07;;;8.45;;
34711;SDS011;20941;42.408;25.634;2022-08-21T11:02:31;10.35;;;8.38;;
34711;SDS011;20941;42.408;25.634;2022-08-21T11:07:55;10.43;;;8.38;;
34711;SDS011;20941;42.408;25.634;2022-08-21T11:11:01;13.57;;;8.80;;
34711;SDS011;20941;42.408;25.634;2022-08-21T11:13:26;13.32;;;8.05;;
34711;SDS011;20941;42.408;25.634;2022-08-21T11:22:06;11.02;;;7.53;;
34711;SDS011;20941;42.408;25.634;2022-08-21T11:24:43;9.00;;;7.63;;
34711;SDS011;20941;42.408;25.634;2022-08-21T11:29:40;15.38;;;8.30;;
34711;SDS011;20941;42.408;25.634;2022-08-21T11:50:31;9.10;;;7.15;;
34711;SDS011;20941;42.408;25.634;2022-08-21T11:52:59;12.27;;;7.25;;
34711;SDS011;20941;42.408;25.634;2022-08-21T11:58:36;8.38;;;7.03;;
34711;SDS011;20941;42.408;25.634;2022-08-21T12:01:07;9.52;;;7.35;;
34711;SDS011;20941;42.408;25.634;2022-08-21T12:03:38;9.63;;;6.97;;
34711;SDS011;20941;42.408;25.634;2022-08-21T12:06:26;11.35;;;7.82;;
34711;SDS011;20941;42.408;25.634;2022-08-21T12:08:58;16.38;;;7.35;;
34711;SDS011;20941;42.408;25.634;2022-08-21T12:11:29;10.02;;;7.13;;
34711;SDS011;20941;42.408;25.634;2022-08-21T12:14:37;7.78;;;6.88;;
34711;SDS011;20941;42.408;25.634;2022-08-21T12:16:44;10.30;;;7.63;;
34711;SDS011;20941;42.408;25.634;2022-08-21T12:30:05;9.00;;;5.97;;
34711;SDS011;20941;42.408;25.634;2022-08-21T12:35:17;8.05;;;6.07;;
34711;SDS011;20941;42.408;25.634;2022-08-21T12:37:47;8.43;;;5.85;;
34711;SDS011;20941;42.408;25.634;2022-08-21T12:40:31;6.90;;;5.07;;
34711;SDS011;20941;42.408;25.634;2022-08-21T12:43:03;6.65;;;5.70;;
34711;SDS011;20941;42.408;25.634;2022-08-21T12:45:33;7.30;;;5.60;;
34711;SDS011;20941;42.408;25.634;2022-08-21T12:53:23;5.30;;;4.78;;
34711;SDS011;20941;42.408;25.634;2022-08-21T12:55:53;8.05;;;5.18;;
34711;SDS011;20941;42.408;25.634;2022-08-21T12:58:25;9.02;;;5.47;;
34711;SDS011;20941;42.408;25.634;2022-08-21T13:01:02;9.45;;;5.28;;
34711;SDS011;20941;42.408;25.634;2022-08-21T13:03:33;6.93;;;5.50;;
34711;SDS011;20941;42.408;25.634;2022-08-21T13:06:01;9.82;;;5.63;;
34711;SDS011;20941;42.408;25.634;2022-08-21T13:08:28;5.68;;;5.07;;
34711;SDS011;20941;42.408;25.634;2022-08-21T13:11:05;7.05;;;5.20;;
34711;SDS011;20941;42.408;25.634;2022-08-21T13:13:31;7.30;;;6.05;;
34711;SDS011;20941;42.408;25.634;2022-08-21T13:15:58;9.40;;;6.55;;
34711;SDS011;20941;42.408;25.634;2022-08-21T13:18:28;9.02;;;7.40;;
34711;SDS011;20941;42.408;25.634;2022-08-21T13:21:29;10.02;;;8.35;;
34711;SDS011;20941;42.408;25.634;2022-08-21T13:23:52;8.85;;;6.35;;
34711;SDS011;20941;42.408;25.634;2022-08-21T13:26:19;6.30;;;5.70;;
34711;SDS011;20941;42.408;25.634;2022-08-21T13:28:46;6.80;;;6.10;;
34711;SDS011;20941;42.408;25.634;2022-08-21T13:31:22;7.68;;;5.78;;
34711;SDS011;20941;42.408;25.634;2022-08-21T13:33:51;7.28;;;5.50;;
34711;SDS011;20941;42.408;25.634;2022-08-21T13:36:32;5.45;;;4.95;;
34711;SDS011;20941;42.408;25.634;2022-08-21T13:39:02;5.97;;;5.22;;
34711;SDS011;20941;42.408;25.634;2022-08-21T13:41:31;10.88;;;5.50;;
34711;SDS011;20941;42.408;25.634;2022-08-21T13:44:02;8.52;;;5.50;;
34711;SDS011;20941;42.408;25.634;2022-08-21T13:46:31;7.65;;;5.63;;
34711;SDS011;20941;42.408;25.634;2022-08-21T13:49:00;7.32;;;5.70;;
34711;SDS011;20941;42.408;25.634;2022-08-21T13:51:28;8.35;;;5.57;;
34711;SDS011;20941;42.408;25.634;2022-08-21T13:53:56;8.63;;;5.65;;
34711;SDS011;20941;42.408;25.634;2022-08-21T13:56:23;9.15;;;5.72;;
34711;SDS011;20941;42.408;25.634;2022-08-21T13:58:52;8.70;;;6.40;;
34711;SDS011;20941;42.408;25.634;2022-08-21T14:01:21;6.85;;;6.10;;
34711;SDS011;20941;42.408;25.634;2022-08-21T14:04:06;9.45;;;5.78;;
34711;SDS011;20941;42.408;25.634;2022-08-21T14:06:39;11.13;;;7.25;;
34711;SDS011;20941;42.408;25.634;2022-08-21T14:09:09;9.80;;;6.38;;
34711;SDS011;20941;42.408;25.634;2022-08-21T14:11:37;6.85;;;5.90;;
34711;SDS011;20941;42.408;25.634;2022-08-21T14:14:05;7.43;;;6.43;;
34711;SDS011;20941;42.408;25.634;2022-08-21T14:16:46;9.88;;;6.35;;
34711;SDS011;20941;42.408;25.634;2022-08-21T14:19:23;12.48;;;5.68;;
34711;SDS011;20941;42.408;25.634;2022-08-21T14:25:08;5.70;;;5.20;;
34711;SDS011;20941;42.408;25.634;2022-08-21T14:27:40;8.25;;;6.05;;
34711;SDS011;20941;42.408;25.634;2022-08-21T14:30:17;9.35;;;6.13;;
34711;SDS011;20941;42.408;25.634;2022-08-21T14:32:52;9.90;;;6.25;;
34711;SDS011;20941;42.408;25.634;2022-08-21T14:35:18;6.65;;;5.93;;
34711;SDS011;20941;42.408;25.634;2022-08-21T14:37:46;9.18;;;6.07;;
34711;SDS011;20941;42.408;25.634;2022-08-21T14:40:15;5.85;;;5.32;;
34711;SDS011;20941;42.408;25.634;2022-08-21T14:42:42;7.13;;;5.90;;
34711;SDS011;20941;42.408;25.634;2022-08-21T14:45:12;8.52;;;5.75;;
34711;SDS011;20941;42.408;25.634;2022-08-21T14:47:39;6.75;;;5.60;;
34711;SDS011;20941;42.408;25.634;2022-08-21T14:50:05;6.78;;;6.07;;
34711;SDS011;20941;42.408;25.634;2022-08-21T14:52:31;8.57;;;5.78;;
34711;SDS011;20941;42.408;25.634;2022-08-21T14:54:57;6.95;;;5.45;;
34711;SDS011;20941;42.408;25.634;2022-08-21T14:57:23;7.95;;;5.93;;
34711;SDS011;20941;42.408;25.634;2022-08-21T14:59:51;8.93;;;5.78;;
34711;SDS011;20941;42.408;25.634;2022-08-21T15:02:17;8.25;;;5.93;;
34711;SDS011;20941;42.408;25.634;2022-08-21T15:04:42;7.82;;;5.85;;
34711;SDS011;20941;42.408;25.634;2022-08-21T15:07:09;8.00;;;6.40;;
34711;SDS011;20941;42.408;25.634;2022-08-21T15:09:34;8.00;;;5.88;;
34711;SDS011;20941;42.408;25.634;2022-08-21T15:12:00;7.53;;;6.15;;
34711;SDS011;20941;42.408;25.634;2022-08-21T15:14:28;8.45;;;6.03;;
34711;SDS011;20941;42.408;25.634;2022-08-21T15:16:57;12.70;;;6.55;;
34711;SDS011;20941;42.408;25.634;2022-08-21T15:19:23;8.43;;;5.93;;
34711;SDS011;20941;42.408;25.634;2022-08-21T15:21:49;12.95;;;7.13;;
34711;SDS011;20941;42.408;25.634;2022-08-21T15:24:15;7.20;;;5.72;;
34711;SDS011;20941;42.408;25.634;2022-08-21T15:26:40;10.60;;;4.82;;
34711;SDS011;20941;42.408;25.634;2022-08-21T15:29:07;6.78;;;4.82;;
34711;SDS011;20941;42.408;25.634;2022-08-21T15:31:33;8.63;;;5.80;;
34711;SDS011;20941;42.408;25.634;2022-08-21T15:34:00;7.22;;;5.43;;
34711;SDS011;20941;42.408;25.634;2022-08-21T15:36:25;6.93;;;5.40;;
34711;SDS011;20941;42.408;25.634;2022-08-21T15:38:51;8.90;;;5.72;;
34711;SDS011;20941;42.408;25.634;2022-08-21T15:41:16;7.53;;;5.40;;
34711;SDS011;20941;42.408;25.634;2022-08-21T15:43:47;8.98;;;5.30;;
34711;SDS011;20941;42.408;25.634;2022-08-21T15:46:16;7.25;;;5.05;;
34711;SDS011;20941;42.408;25.634;2022-08-21T15:48:43;8.10;;;5.05;;
34711;SDS011;20941;42.408;25.634;2022-08-21T15:51:11;7.93;;;5.28;;
34711;SDS011;20941;42.408;25.634;2022-08-21T15:53:37;7.65;;;4.78;;
34711;SDS011;20941;42.408;25.634;2022-08-21T15:56:05;6.03;;;5.43;;
34711;SDS011;20941;42.408;25.634;2022-08-21T15:58:31;6.60;;;5.43;;
34711;SDS011;20941;42.408;25.634;2022-08-21T16:01:00;8.98;;;5.35;;
34711;SDS011;20941;42.408;25.634;2022-08-21T16:03:26;7.05;;;4.80;;
34711;SDS011;20941;42.408;25.634;2022-08-21T16:05:52;6.63;;;5.15;;
34711;SDS011;20941;42.408;25.634;2022-08-21T16:08:20;6.13;;;5.18;;
34711;SDS011;20941;42.408;25.634;2022-08-21T16:10:46;8.65;;;4.97;;
34711;SDS011;20941;42.408;25.634;2022-08-21T16:13:32;7.90;;;5.57;;
34711;SDS011;20941;42.408;25.634;2022-08-21T16:16:01;6.45;;;5.53;;
34711;SDS011;20941;42.408;25.634;2022-08-21T16:18:27;7.60;;;5.10;;
34711;SDS011;20941;42.408;25.634;2022-08-21T16:20:52;5.72;;;5.13;;
34711;SDS011;20941;42.408;25.634;2022-08-21T16:23:18;7.32;;;6.03;;
34711;SDS011;20941;42.408;25.634;2022-08-21T16:25:43;8.57;;;5.65;;
34711;SDS011;20941;42.408;25.634;2022-08-21T16:28:11;8.90;;;5.22;;
34711;SDS011;20941;42.408;25.634;2022-08-21T16:30:39;8.48;;;5.70;;
34711;SDS011;20941;42.408;25.634;2022-08-21T16:33:05;8.30;;;5.35;;
34711;SDS011;20941;42.408;25.634;2022-08-21T16:35:34;6.85;;;5.80;;
34711;SDS011;20941;42.408;25.634;2022-08-21T16:38:00;6.70;;;5.57;;
34711;SDS011;20941;42.408;25.634;2022-08-21T16:40:26;9.77;;;5.78;;
34711;SDS011;20941;42.408;25.634;2022-08-21T16:42:52;8.02;;;5.78;;
34711;SDS011;20941;42.408;25.634;2022-08-21T16:45:18;6.60;;;5.88;;
34711;SDS011;20941;42.408;25.634;2022-08-21T16:47:45;7.38;;;5.65;;
34711;SDS011;20941;42.408;25.634;2022-08-21T16:50:12;8.60;;;6.03;;
34711;SDS011;20941;42.408;25.634;2022-08-21T16:52:41;24.08;;;7.72;;
34711;SDS011;20941;42.408;25.634;2022-08-21T16:55:07;15.18;;;6.40;;
34711;SDS011;20941;42.408;25.634;2022-08-21T16:57:33;8.05;;;5.75;;
34711;SDS011;20941;42.408;25.634;2022-08-21T17:00:08;10.77;;;5.90;;
34711;SDS011;20941;42.408;25.634;2022-08-21T17:02:39;18.85;;;6.28;;
34711;SDS011;20941;42.408;25.634;2022-08-21T17:05:08;11.75;;;6.13;;